RAM1446 GMMN-GMFK
Flight info
| Callsign | RAM1446 |
|---|---|
| Flight time | 0h 33m |
| Altitude | 27000 |
| Route | LACAJ UH119 ERA |
| Aircraft | B738/M-SDE2E3FGHIRWXY/LB1 |
Departure
| Time | 2026-04-29 23:26 |
|---|---|
| Airport | Mohammed V International Airport (GMMN) |
Arrival
| Time | 2026-04-30 00:00 |
|---|---|
| Airport | Moulay Ali Cherif Airport (GMFK) |
| Time | Latitude | Longitude | Altitude | Speed | Heading |
|---|---|---|---|---|---|
| 2026-04-29 23:12 | 33.36883 | -7.58097 | 652 ft | 0 kts | 75° |
| 2026-04-29 23:16 | 33.36883 | -7.58098 | 652 ft | 1 kts | 75° |
| 2026-04-29 23:17 | 33.36878 | -7.58117 | 654 ft | 3 kts | 65° |
| 2026-04-29 23:17 | 33.36869 | -7.58137 | 654 ft | 3 kts | 48° |
| 2026-04-29 23:17 | 33.36854 | -7.58153 | 657 ft | 3 kts | 25° |
| 2026-04-29 23:17 | 33.36836 | -7.58159 | 656 ft | 3 kts | 358° |
| 2026-04-29 23:18 | 33.36823 | -7.58158 | 653 ft | 0 kts | 345° |
| 2026-04-29 23:20 | 33.36842 | -7.58164 | 653 ft | 7 kts | 345° |
| 2026-04-29 23:20 | 33.36890 | -7.58179 | 653 ft | 8 kts | 345° |
| 2026-04-29 23:20 | 33.36945 | -7.58229 | 652 ft | 12 kts | 271° |
| 2026-04-29 23:21 | 33.36924 | -7.58326 | 653 ft | 12 kts | 254° |
| 2026-04-29 23:21 | 33.36902 | -7.58420 | 652 ft | 12 kts | 253° |
| 2026-04-29 23:21 | 33.36841 | -7.58460 | 652 ft | 12 kts | 166° |
| 2026-04-29 23:21 | 33.36762 | -7.58433 | 654 ft | 12 kts | 163° |
| 2026-04-29 23:22 | 33.36679 | -7.58405 | 652 ft | 14 kts | 164° |
| 2026-04-29 23:22 | 33.36565 | -7.58366 | 652 ft | 18 kts | 164° |
| 2026-04-29 23:22 | 33.36447 | -7.58325 | 652 ft | 17 kts | 163° |
| 2026-04-29 23:22 | 33.36326 | -7.58284 | 651 ft | 20 kts | 164° |
| 2026-04-29 23:23 | 33.36195 | -7.58238 | 651 ft | 19 kts | 163° |
| 2026-04-29 23:23 | 33.36068 | -7.58194 | 651 ft | 19 kts | 163° |
| 2026-04-29 23:23 | 33.35944 | -7.58153 | 651 ft | 18 kts | 165° |
| 2026-04-29 23:23 | 33.35827 | -7.58113 | 651 ft | 17 kts | 164° |
| 2026-04-29 23:24 | 33.35712 | -7.58074 | 651 ft | 17 kts | 163° |
| 2026-04-29 23:24 | 33.35609 | -7.58042 | 651 ft | 13 kts | 182° |
| 2026-04-29 23:24 | 33.35563 | -7.58127 | 651 ft | 13 kts | 254° |
| 2026-04-29 23:24 | 33.35539 | -7.58228 | 649 ft | 13 kts | 253° |
| 2026-04-29 23:25 | 33.35516 | -7.58339 | 646 ft | 13 kts | 275° |
| 2026-04-29 23:25 | 33.35554 | -7.58377 | 645 ft | 0 kts | 344° |
| 2026-04-29 23:25 | 33.35561 | -7.58379 | 645 ft | 7 kts | 344° |
| 2026-04-29 23:25 | 33.35850 | -7.58478 | 644 ft | 80 kts | 344° |
| 2026-04-29 23:26 | 33.36591 | -7.58732 | 652 ft | 141 kts | 344° |
| 2026-04-29 23:26 | 33.37652 | -7.59096 | 1002 ft | 163 kts | 345° |
| 2026-04-29 23:26 | 33.38752 | -7.59466 | 1806 ft | 165 kts | 346° |
| 2026-04-29 23:26 | 33.39880 | -7.59752 | 2548 ft | 168 kts | 1° |
| 2026-04-29 23:27 | 33.41042 | -7.59244 | 2858 ft | 192 kts | 41° |
| 2026-04-29 23:27 | 33.41953 | -7.57994 | 3181 ft | 211 kts | 56° |
| 2026-04-29 23:27 | 33.42528 | -7.56271 | 3393 ft | 234 kts | 75° |
| 2026-04-29 23:27 | 33.42942 | -7.54330 | 3877 ft | 245 kts | 75° |
| 2026-04-29 23:28 | 33.43380 | -7.52330 | 4580 ft | 251 kts | 76° |
| 2026-04-29 23:28 | 33.43830 | -7.50269 | 5257 ft | 257 kts | 76° |
| 2026-04-29 23:28 | 33.44152 | -7.48192 | 6013 ft | 257 kts | 94° |
| 2026-04-29 23:28 | 33.43685 | -7.46123 | 6528 ft | 267 kts | 119° |
| 2026-04-29 23:29 | 33.42752 | -7.44140 | 7023 ft | 278 kts | 122° |
| 2026-04-29 23:29 | 33.41750 | -7.42119 | 7699 ft | 282 kts | 123° |
| 2026-04-29 23:29 | 33.40735 | -7.40086 | 8440 ft | 286 kts | 123° |
| 2026-04-29 23:29 | 33.39711 | -7.38027 | 9168 ft | 289 kts | 123° |
| 2026-04-29 23:30 | 33.38692 | -7.35968 | 9878 ft | 293 kts | 123° |
| 2026-04-29 23:30 | 33.37639 | -7.33836 | 10400 ft | 304 kts | 123° |
| 2026-04-29 23:30 | 33.36517 | -7.31562 | 10557 ft | 327 kts | 123° |
| 2026-04-29 23:30 | 33.35327 | -7.29145 | 10717 ft | 348 kts | 122° |
| 2026-04-29 23:31 | 33.34083 | -7.26613 | 11048 ft | 361 kts | 122° |
| 2026-04-29 23:31 | 33.32800 | -7.23993 | 11636 ft | 365 kts | 122° |
| 2026-04-29 23:31 | 33.31513 | -7.21364 | 12320 ft | 367 kts | 122° |
| 2026-04-29 23:31 | 33.30220 | -7.18725 | 13026 ft | 369 kts | 123° |
| 2026-04-29 23:32 | 33.29357 | -7.16965 | 13481 ft | 371 kts | 123° |
| 2026-04-29 23:32 | 33.28044 | -7.14290 | 14107 ft | 374 kts | 123° |
| 2026-04-29 23:32 | 33.26721 | -7.11599 | 14693 ft | 378 kts | 123° |
| 2026-04-29 23:32 | 33.25382 | -7.08876 | 15310 ft | 382 kts | 123° |
| 2026-04-29 23:33 | 33.24030 | -7.06130 | 15926 ft | 385 kts | 123° |
| 2026-04-29 23:33 | 33.22676 | -7.03380 | 16534 ft | 388 kts | 123° |
| 2026-04-29 23:33 | 33.21294 | -7.00578 | 17123 ft | 392 kts | 123° |
| 2026-04-29 23:33 | 33.19899 | -6.97749 | 17703 ft | 397 kts | 123° |
| 2026-04-29 23:34 | 33.18486 | -6.94887 | 18298 ft | 400 kts | 123° |
| 2026-04-29 23:34 | 33.17067 | -6.92012 | 18809 ft | 404 kts | 124° |
| 2026-04-29 23:34 | 33.15638 | -6.89123 | 19330 ft | 406 kts | 124° |
| 2026-04-29 23:34 | 33.14206 | -6.86230 | 19835 ft | 409 kts | 124° |
| 2026-04-29 23:35 | 33.12762 | -6.83284 | 20379 ft | 412 kts | 123° |
| 2026-04-29 23:35 | 33.11343 | -6.80289 | 20890 ft | 416 kts | 122° |
| 2026-04-29 23:35 | 33.09929 | -6.77264 | 21383 ft | 419 kts | 122° |
| 2026-04-29 23:35 | 33.08505 | -6.74205 | 21871 ft | 422 kts | 122° |
| 2026-04-29 23:36 | 33.07093 | -6.71183 | 22343 ft | 425 kts | 122° |
| 2026-04-29 23:36 | 33.05642 | -6.68085 | 22817 ft | 428 kts | 122° |
| 2026-04-29 23:36 | 33.04180 | -6.64975 | 23276 ft | 430 kts | 122° |
| 2026-04-29 23:36 | 33.02707 | -6.61848 | 23706 ft | 433 kts | 122° |
| 2026-04-29 23:37 | 33.01238 | -6.58736 | 24076 ft | 436 kts | 122° |
| 2026-04-29 23:37 | 32.99741 | -6.55567 | 24425 ft | 439 kts | 123° |
| 2026-04-29 23:37 | 32.98231 | -6.52372 | 24766 ft | 442 kts | 123° |
| 2026-04-29 23:37 | 32.96731 | -6.49201 | 25084 ft | 446 kts | 123° |
| 2026-04-29 23:38 | 32.95193 | -6.45953 | 25407 ft | 449 kts | 123° |
| 2026-04-29 23:38 | 32.93650 | -6.42693 | 25710 ft | 453 kts | 123° |
| 2026-04-29 23:38 | 32.92087 | -6.39399 | 26027 ft | 456 kts | 123° |
| 2026-04-29 23:38 | 32.90535 | -6.36154 | 26359 ft | 459 kts | 123° |
| 2026-04-29 23:39 | 32.88927 | -6.32836 | 26690 ft | 461 kts | 123° |
| 2026-04-29 23:39 | 32.87315 | -6.29524 | 27009 ft | 463 kts | 123° |
| 2026-04-29 23:39 | 32.85708 | -6.26227 | 27010 ft | 467 kts | 123° |
| 2026-04-29 23:39 | 32.84083 | -6.22890 | 27029 ft | 464 kts | 123° |
| 2026-04-29 23:40 | 32.82476 | -6.19583 | 27019 ft | 459 kts | 123° |
| 2026-04-29 23:40 | 32.80872 | -6.16285 | 27025 ft | 459 kts | 123° |
| 2026-04-29 23:40 | 32.79279 | -6.13015 | 27038 ft | 461 kts | 123° |
| 2026-04-29 23:40 | 32.77667 | -6.09708 | 27023 ft | 462 kts | 123° |
| 2026-04-29 23:41 | 32.76054 | -6.06399 | 27026 ft | 462 kts | 123° |
| 2026-04-29 23:41 | 32.74434 | -6.03083 | 27030 ft | 463 kts | 123° |
| 2026-04-29 23:41 | 32.72839 | -5.99806 | 27030 ft | 463 kts | 123° |
| 2026-04-29 23:41 | 32.71233 | -5.96487 | 27034 ft | 464 kts | 123° |
| 2026-04-29 23:42 | 32.69625 | -5.93159 | 27045 ft | 464 kts | 123° |
| 2026-04-29 23:42 | 32.68013 | -5.89826 | 27045 ft | 464 kts | 123° |
| 2026-04-29 23:42 | 32.66417 | -5.86532 | 27050 ft | 464 kts | 123° |
| 2026-04-29 23:42 | 32.64804 | -5.83211 | 27049 ft | 463 kts | 123° |
| 2026-04-29 23:43 | 32.63195 | -5.79891 | 27051 ft | 461 kts | 123° |
| 2026-04-29 23:43 | 32.61631 | -5.76623 | 26976 ft | 447 kts | 123° |
| 2026-04-29 23:43 | 32.60153 | -5.73482 | 26609 ft | 434 kts | 123° |
| 2026-04-29 23:43 | 32.58702 | -5.70383 | 25889 ft | 427 kts | 122° |
| 2026-04-29 23:44 | 32.57263 | -5.67314 | 25079 ft | 424 kts | 122° |
| 2026-04-29 23:44 | 32.55831 | -5.64268 | 24347 ft | 419 kts | 122° |
| 2026-04-29 23:44 | 32.54419 | -5.61270 | 23701 ft | 413 kts | 122° |
| 2026-04-29 23:44 | 32.53026 | -5.58315 | 22937 ft | 407 kts | 122° |
| 2026-04-29 23:45 | 32.51668 | -5.55441 | 22151 ft | 402 kts | 122° |
| 2026-04-29 23:45 | 32.50308 | -5.52566 | 21349 ft | 398 kts | 122° |
| 2026-04-29 23:45 | 32.48957 | -5.49715 | 20553 ft | 394 kts | 123° |
| 2026-04-29 23:45 | 32.47616 | -5.46887 | 19770 ft | 392 kts | 123° |
| 2026-04-29 23:46 | 32.46282 | -5.44074 | 19043 ft | 388 kts | 123° |
| 2026-04-29 23:46 | 32.44965 | -5.41300 | 18354 ft | 384 kts | 123° |
| 2026-04-29 23:46 | 32.43659 | -5.38552 | 17610 ft | 380 kts | 122° |
| 2026-04-29 23:46 | 32.42389 | -5.35879 | 16950 ft | 374 kts | 122° |
| 2026-04-29 23:47 | 32.41131 | -5.33232 | 16438 ft | 364 kts | 122° |
| 2026-04-29 23:47 | 32.39901 | -5.30644 | 15957 ft | 354 kts | 122° |
| 2026-04-29 23:47 | 32.38712 | -5.28146 | 15537 ft | 343 kts | 122° |
| 2026-04-29 23:47 | 32.37563 | -5.25735 | 15159 ft | 337 kts | 122° |
| 2026-04-29 23:48 | 32.36419 | -5.23340 | 14748 ft | 332 kts | 122° |
| 2026-04-29 23:48 | 32.35281 | -5.20958 | 14359 ft | 334 kts | 122° |
| 2026-04-29 23:48 | 32.34111 | -5.18514 | 13962 ft | 346 kts | 122° |
| 2026-04-29 23:48 | 32.32937 | -5.16064 | 13487 ft | 344 kts | 122° |
| 2026-04-29 23:49 | 32.31775 | -5.13633 | 13048 ft | 334 kts | 122° |
| 2026-04-29 23:49 | 32.30646 | -5.11268 | 12623 ft | 325 kts | 122° |
| 2026-04-29 23:49 | 32.29550 | -5.08975 | 12216 ft | 317 kts | 122° |
| 2026-04-29 23:49 | 32.28472 | -5.06724 | 11840 ft | 312 kts | 122° |
| 2026-04-29 23:50 | 32.27404 | -5.04498 | 11468 ft | 311 kts | 122° |
| 2026-04-29 23:50 | 32.26315 | -5.02233 | 11110 ft | 323 kts | 122° |
| 2026-04-29 23:50 | 32.24079 | -4.97578 | 10648 ft | 315 kts | 121° |
| 2026-04-29 23:51 | 32.23044 | -4.95420 | 10502 ft | 297 kts | 121° |
| 2026-04-29 23:51 | 32.22051 | -4.93348 | 10382 ft | 282 kts | 122° |
| 2026-04-29 23:51 | 32.21099 | -4.91367 | 10276 ft | 272 kts | 122° |
| 2026-04-29 23:51 | 32.20170 | -4.89439 | 10165 ft | 266 kts | 121° |
| 2026-04-29 23:52 | 32.19252 | -4.87536 | 10063 ft | 271 kts | 122° |
| 2026-04-29 23:52 | 32.18319 | -4.85602 | 9776 ft | 275 kts | 122° |
| 2026-04-29 23:52 | 32.17383 | -4.83661 | 9490 ft | 268 kts | 122° |
| 2026-04-29 23:52 | 32.16469 | -4.81767 | 9220 ft | 263 kts | 122° |
| 2026-04-29 23:53 | 32.15569 | -4.79901 | 9147 ft | 258 kts | 122° |
| 2026-04-29 23:53 | 32.14664 | -4.78030 | 9220 ft | 269 kts | 122° |
| 2026-04-29 23:53 | 32.13723 | -4.76085 | 9200 ft | 273 kts | 122° |
| 2026-04-29 23:53 | 32.12795 | -4.74164 | 9049 ft | 271 kts | 122° |
| 2026-04-29 23:54 | 32.11861 | -4.72232 | 8762 ft | 271 kts | 122° |
| 2026-04-29 23:54 | 32.10947 | -4.70343 | 8765 ft | 260 kts | 122° |
| 2026-04-29 23:54 | 32.10036 | -4.68463 | 8861 ft | 268 kts | 121° |
| 2026-04-29 23:54 | 32.09109 | -4.66531 | 8836 ft | 270 kts | 121° |
| 2026-04-29 23:55 | 32.08252 | -4.64605 | 8785 ft | 263 kts | 119° |
| 2026-04-29 23:55 | 32.07441 | -4.62694 | 8585 ft | 257 kts | 117° |
| 2026-04-29 23:55 | 32.06690 | -4.60849 | 8479 ft | 243 kts | 118° |
| 2026-04-29 23:55 | 32.05945 | -4.59101 | 8252 ft | 236 kts | 123° |
| 2026-04-29 23:56 | 32.05091 | -4.57468 | 7976 ft | 230 kts | 123° |
| 2026-04-29 23:56 | 32.04250 | -4.55920 | 7675 ft | 223 kts | 125° |
| 2026-04-29 23:56 | 32.03405 | -4.54432 | 7361 ft | 215 kts | 126° |
| 2026-04-29 23:56 | 32.02572 | -4.52991 | 6905 ft | 207 kts | 127° |
| 2026-04-29 23:57 | 32.01760 | -4.51649 | 6467 ft | 196 kts | 127° |
| 2026-04-29 23:57 | 32.01008 | -4.50412 | 6308 ft | 176 kts | 128° |
| 2026-04-29 23:57 | 32.00255 | -4.49270 | 5834 ft | 177 kts | 129° |
| 2026-04-29 23:57 | 31.99550 | -4.48121 | 5402 ft | 173 kts | 124° |
| 2026-04-29 23:58 | 31.98913 | -4.46917 | 4951 ft | 171 kts | 124° |
| 2026-04-29 23:58 | 31.98308 | -4.45765 | 4706 ft | 157 kts | 128° |
| 2026-04-29 23:58 | 31.97685 | -4.44745 | 4430 ft | 149 kts | 130° |
| 2026-04-29 23:58 | 31.97049 | -4.43761 | 4038 ft | 151 kts | 128° |
| 2026-04-29 23:59 | 31.96444 | -4.42785 | 3773 ft | 147 kts | 124° |
| 2026-04-29 23:59 | 31.95851 | -4.41794 | 3505 ft | 148 kts | 124° |
| 2026-04-29 23:59 | 31.95271 | -4.40817 | 3372 ft | 136 kts | 123° |
| 2026-04-29 23:59 | 31.94825 | -4.40073 | 3377 ft | 71 kts | 125° |
| 2026-04-30 00:00 | 31.94703 | -4.39895 | 3373 ft | 12 kts | 159° |
| 2026-04-30 00:00 | 31.94633 | -4.39924 | 3373 ft | 9 kts | 216° |
| 2026-04-30 00:00 | 31.94585 | -4.39964 | 3373 ft | 8 kts | 216° |
| 2026-04-30 00:00 | 31.94537 | -4.40001 | 3373 ft | 8 kts | 198° |
| 2026-04-30 00:01 | 31.94483 | -4.40012 | 3373 ft | 8 kts | 208° |
| 2026-04-30 00:01 | 31.94481 | -4.40054 | 3374 ft | 8 kts | 342° |
| 2026-04-30 00:01 | 31.94506 | -4.40059 | 3373 ft | 0 kts | 350° |